createdAt,value
2022-07-31T00:00:23.048Z,58801.00
2022-07-31T00:01:25.818Z,58762.86
2022-07-31T00:02:28.594Z,58689.61
2022-07-31T00:03:31.364Z,58640.44
2022-07-31T00:04:34.035Z,58555.14
2022-07-31T00:05:41.429Z,58486.91
2022-07-31T00:06:41.234Z,58471.86
2022-07-31T00:07:44.097Z,58383.56
2022-07-31T00:08:47.176Z,58368.51
2022-07-31T00:09:54.386Z,58293.26
2022-07-31T00:10:54.560Z,58262.15
2022-07-31T00:11:57.538Z,58145.76
2022-07-31T00:13:00.516Z,58130.71
2022-07-31T00:14:03.393Z,58037.40
2022-07-31T00:15:06.168Z,58001.28
2022-07-31T00:16:08.932Z,57937.07
2022-07-31T00:17:11.808Z,57902.96
2022-07-31T00:18:14.885Z,57875.87
2022-07-31T00:19:17.967Z,57767.52
2022-07-31T00:20:21.044Z,57716.36
2022-07-31T00:21:24.231Z,57662.18
2022-07-31T00:22:27.098Z,57670.21
2022-07-31T00:23:30.284Z,57632.08
2022-07-31T00:24:32.968Z,57630.08
2022-07-31T00:25:36.137Z,57600.98
2022-07-31T00:26:38.908Z,57234.83
2022-07-31T00:27:41.574Z,57214.77
2022-07-31T00:28:44.450Z,57165.62
2022-07-31T00:29:47.530Z,57186.68
2022-07-31T00:30:50.710Z,57183.68
2022-07-31T00:31:53.685Z,57133.52
2022-07-31T00:32:56.679Z,57153.58
2022-07-31T00:33:59.845Z,57135.52
2022-07-31T00:35:02.831Z,57112.45
2022-07-31T00:36:05.903Z,57026.19
2022-07-31T00:37:08.776Z,57021.18
2022-07-31T00:38:27.788Z,57026.19
2022-07-31T00:39:16.370Z,56991.09
2022-07-31T00:40:19.456Z,57000.11
2022-07-31T00:41:22.440Z,56968.01
2022-07-31T00:42:25.408Z,56913.85
2022-07-31T00:43:30.969Z,56846.65
2022-07-31T00:44:32.701Z,56842.64
2022-07-31T00:45:36.279Z,56857.68
2022-07-31T00:46:40.598Z,56797.50
2022-07-31T00:47:43.497Z,56705.23
2022-07-31T00:48:46.427Z,56653.07
2022-07-31T00:49:49.320Z,56418.38
2022-07-31T00:50:52.291Z,56327.12
2022-07-31T00:51:55.279Z,56227.84
2022-07-31T00:52:58.361Z,56095.46
2022-07-31T00:54:01.324Z,56033.29
2022-07-31T00:55:04.523Z,55897.91
2022-07-31T00:56:07.697Z,55853.79
2022-07-31T00:57:10.565Z,55807.66
2022-07-31T00:58:13.751Z,55668.28
2022-07-31T00:59:16.625Z,55659.26
2022-07-31T01:00:21.248Z,55604.11
2022-07-31T01:01:24.136Z,55541.94
2022-07-31T01:02:26.884Z,55560.99
2022-07-31T01:03:29.766Z,55449.70
2022-07-31T01:04:32.426Z,55356.45
2022-07-31T01:05:35.303Z,55284.26
2022-07-31T01:06:42.497Z,55255.18
2022-07-31T01:07:42.385Z,55154.93
2022-07-31T01:08:45.049Z,55085.75
2022-07-31T01:09:47.925Z,55049.66
2022-07-31T01:10:50.799Z,55012.56
2022-07-31T01:11:53.679Z,54976.47
2022-07-31T01:12:56.657Z,54942.38
2022-07-31T01:13:59.319Z,54887.24
2022-07-31T01:15:02.202Z,54733.86
2022-07-31T01:16:04.970Z,54664.69
2022-07-31T01:17:07.753Z,54677.72
2022-07-31T01:18:10.566Z,54641.63
2022-07-31T01:19:14.518Z,54569.46
2022-07-31T01:20:17.195Z,54424.11
2022-07-31T01:21:20.058Z,54413.08
2022-07-31T01:22:33.948Z,54384.01
2022-07-31T01:23:27.263Z,54358.95
2022-07-31T01:24:30.020Z,54372.98
2022-07-31T01:25:32.790Z,54366.97
2022-07-31T01:26:35.567Z,54389.02
2022-07-31T01:27:49.437Z,54408.07
2022-07-31T01:28:42.755Z,54377.00
2022-07-31T01:29:45.620Z,54368.98
2022-07-31T01:30:52.955Z,54377.00
2022-07-31T01:31:52.801Z,54319.86
2022-07-31T01:32:55.576Z,54283.77
2022-07-31T01:33:58.242Z,54247.69
2022-07-31T01:35:01.013Z,54256.71
2022-07-31T01:36:03.785Z,54219.62
2022-07-31T01:37:06.836Z,54219.62
2022-07-31T01:38:10.881Z,54234.66
2022-07-31T01:39:13.748Z,54187.55
2022-07-31T01:40:16.620Z,54157.48
2022-07-31T01:41:19.286Z,54190.55
2022-07-31T01:42:22.052Z,54208.60
2022-07-31T01:43:25.144Z,54165.50
2022-07-31T01:44:27.910Z,54086.31
2022-07-31T01:45:30.952Z,54100.35
2022-07-31T01:46:37.316Z,54103.35
2022-07-31T01:47:38.386Z,54092.33
2022-07-31T01:48:41.358Z,54081.30
2022-07-31T01:49:44.164Z,54100.35
2022-07-31T01:50:47.215Z,54067.27
2022-07-31T01:51:50.183Z,54080.30
2022-07-31T01:52:54.695Z,54104.36
2022-07-31T01:53:57.484Z,54005.13
2022-07-31T01:55:00.584Z,53813.69
2022-07-31T01:56:04.424Z,53604.23
2022-07-31T01:57:07.523Z,53503.01
2022-07-31T01:58:10.706Z,53294.56
2022-07-31T01:59:20.377Z,53139.24
2022-07-31T02:00:33.320Z,53056.07
2022-07-31T02:01:26.963Z,53002.96
2022-07-31T02:02:27.119Z,53027.01
2022-07-31T02:03:44.278Z,53019.99
2022-07-31T02:04:34.406Z,52985.92
2022-07-31T02:05:37.592Z,52965.88
2022-07-31T02:06:40.464Z,52975.91
2022-07-31T02:07:43.131Z,52921.79
2022-07-31T02:08:45.926Z,52963.88
2022-07-31T02:09:52.493Z,52921.79
2022-07-31T02:10:52.993Z,52911.77
2022-07-31T02:11:55.654Z,52958.87
2022-07-31T02:12:58.325Z,52907.77
2022-07-31T02:14:00.991Z,52913.78
2022-07-31T02:15:03.779Z,52926.80
2022-07-31T02:16:06.742Z,52923.80
2022-07-31T02:17:09.519Z,52911.77
2022-07-31T02:18:12.386Z,52900.75
2022-07-31T02:19:15.157Z,52952.86
2022-07-31T02:20:17.933Z,52933.82
2022-07-31T02:21:20.807Z,52934.82
2022-07-31T02:22:24.103Z,52942.84
2022-07-31T02:23:28.194Z,52952.86
2022-07-31T02:24:30.966Z,52949.85
2022-07-31T02:25:33.742Z,52959.87
2022-07-31T02:26:36.414Z,52980.91
2022-07-31T02:27:53.648Z,52947.85
2022-07-31T02:28:43.800Z,52969.89
2022-07-31T02:29:46.485Z,52965.88
2022-07-31T02:30:49.551Z,52956.86
2022-07-31T02:32:02.838Z,52935.82
2022-07-31T02:32:56.939Z,52932.82
2022-07-31T02:33:59.810Z,52928.81
2022-07-31T02:35:02.585Z,52927.80
2022-07-31T02:36:05.373Z,52962.88
2022-07-31T02:37:08.122Z,52979.91
2022-07-31T02:38:17.197Z,52964.88
2022-07-31T02:39:15.103Z,52906.77
2022-07-31T02:40:17.879Z,52945.84
2022-07-31T02:41:20.651Z,52947.85
2022-07-31T02:42:23.542Z,52951.86
2022-07-31T02:43:26.502Z,52914.78
2022-07-31T02:44:29.165Z,52935.82
2022-07-31T02:45:31.945Z,52895.74
2022-07-31T02:46:34.724Z,52943.84
2022-07-31T02:47:37.799Z,52953.86
2022-07-31T02:48:40.472Z,52905.76
2022-07-31T02:49:43.256Z,52886.72
2022-07-31T02:50:45.903Z,52939.83
2022-07-31T02:51:48.787Z,52958.87
2022-07-31T02:52:52.579Z,52947.85
2022-07-31T02:53:55.563Z,52943.84
2022-07-31T02:54:58.429Z,52940.83
2022-07-31T02:56:01.507Z,52941.84
2022-07-31T02:57:04.917Z,52946.84
2022-07-31T02:58:08.075Z,52923.80
2022-07-31T02:59:11.051Z,52925.80
2022-07-31T03:00:14.133Z,52950.85
2022-07-31T03:01:17.310Z,52947.85
2022-07-31T03:02:20.185Z,52942.84
2022-07-31T03:03:23.265Z,52957.87
2022-07-31T03:04:26.348Z,52996.95
2022-07-31T03:05:29.537Z,52954.86
2022-07-31T03:06:32.350Z,52951.86
2022-07-31T03:07:35.079Z,52956.86
2022-07-31T03:08:38.048Z,52929.81
2022-07-31T03:09:40.719Z,52955.86
2022-07-31T03:10:43.388Z,52945.84
2022-07-31T03:11:46.265Z,52937.83
2022-07-31T03:12:49.039Z,52940.83
2022-07-31T03:13:51.712Z,52945.84
2022-07-31T03:14:54.472Z,52933.82
2022-07-31T03:15:57.356Z,52919.79
2022-07-31T03:17:00.141Z,52935.82
2022-07-31T03:18:11.173Z,52936.82
2022-07-31T03:19:08.019Z,52966.89
2022-07-31T03:20:11.111Z,52951.86
2022-07-31T03:21:14.078Z,52938.83
2022-07-31T03:22:16.775Z,52974.90
2022-07-31T03:23:19.625Z,52960.88
2022-07-31T03:24:22.704Z,52966.89
2022-07-31T03:25:25.889Z,53000.95
2022-07-31T03:26:28.552Z,52949.85
2022-07-31T03:27:31.645Z,52976.91
2022-07-31T03:28:34.516Z,52933.82
2022-07-31T03:29:42.939Z,52974.90
2022-07-31T03:30:42.205Z,52963.88
2022-07-31T03:31:44.984Z,52949.85
2022-07-31T03:32:47.748Z,52956.86
2022-07-31T03:33:50.843Z,52963.88
2022-07-31T03:34:53.928Z,52950.85
2022-07-31T03:35:56.881Z,52946.84
2022-07-31T03:36:59.968Z,52935.82
2022-07-31T03:38:02.942Z,52933.82
2022-07-31T03:39:07.461Z,52971.89
2022-07-31T03:40:10.539Z,52919.79
2022-07-31T03:41:13.509Z,52948.85
2022-07-31T03:42:19.257Z,52939.83
2022-07-31T03:43:20.905Z,52935.82
2022-07-31T03:44:23.777Z,52939.83
2022-07-31T03:45:26.858Z,52975.91
2022-07-31T03:46:29.520Z,52953.86
2022-07-31T03:47:32.603Z,52967.89
2022-07-31T03:48:35.477Z,52944.84
2022-07-31T03:49:39.149Z,52967.89
2022-07-31T03:50:42.040Z,52937.83
2022-07-31T03:51:44.713Z,52939.83
2022-07-31T03:52:47.590Z,52983.92
2022-07-31T03:53:50.582Z,52961.87
2022-07-31T03:54:53.631Z,52987.93
2022-07-31T03:55:56.419Z,52963.88
2022-07-31T03:56:59.188Z,52975.91
2022-07-31T03:58:02.066Z,52929.81
2022-07-31T03:59:04.939Z,52961.87
2022-07-31T04:00:16.435Z,52973.90
2022-07-31T04:01:12.436Z,52959.87
2022-07-31T04:02:15.466Z,52916.79
2022-07-31T04:03:19.517Z,52922.80
2022-07-31T04:04:22.280Z,52956.86
2022-07-31T04:05:25.162Z,52943.84
2022-07-31T04:06:27.930Z,52951.86
2022-07-31T04:07:30.618Z,52971.89
2022-07-31T04:08:33.384Z,52953.86
2022-07-31T04:09:36.252Z,52966.89
2022-07-31T04:10:38.917Z,52952.86
2022-07-31T04:11:41.590Z,52984.92
2022-07-31T04:12:44.465Z,52955.86
2022-07-31T04:13:47.438Z,52953.86
2022-07-31T04:14:50.215Z,52957.87
2022-07-31T04:15:52.897Z,52975.91
2022-07-31T04:16:55.969Z,52954.86
2022-07-31T04:17:58.943Z,52963.88
2022-07-31T04:19:01.808Z,52977.91
2022-07-31T04:20:05.702Z,52967.89
2022-07-31T04:21:08.899Z,52963.88
2022-07-31T04:22:11.868Z,52975.91
2022-07-31T04:23:14.747Z,52978.91
2022-07-31T04:24:17.719Z,52981.92
2022-07-31T04:25:20.795Z,53022.00
2022-07-31T04:26:26.066Z,52993.94
2022-07-31T04:27:28.311Z,52985.92
2022-07-31T04:28:31.062Z,53009.97
2022-07-31T04:29:34.040Z,52970.89
2022-07-31T04:30:36.812Z,53015.98
2022-07-31T04:31:39.585Z,52976.91
2022-07-31T04:32:42.350Z,53032.02
2022-07-31T04:33:48.767Z,52988.93
2022-07-31T04:34:50.158Z,53010.98
2022-07-31T04:35:53.230Z,52996.95
2022-07-31T04:36:56.407Z,52968.89
2022-07-31T04:37:59.184Z,53001.96
2022-07-31T04:39:02.182Z,53014.98
2022-07-31T04:40:05.148Z,52988.93
2022-07-31T04:41:09.651Z,52992.94
2022-07-31T04:42:12.886Z,52991.94
2022-07-31T04:43:16.429Z,52980.91
2022-07-31T04:44:19.409Z,52965.88
2022-07-31T04:45:22.380Z,52967.89
2022-07-31T04:46:25.158Z,52991.94
2022-07-31T04:47:28.437Z,52988.93
2022-07-31T04:48:31.223Z,53010.98
2022-07-31T04:49:34.239Z,52987.93
2022-07-31T04:50:37.072Z,52986.93
2022-07-31T04:51:40.238Z,52993.94
2022-07-31T04:52:43.121Z,53012.98
2022-07-31T04:53:45.785Z,53008.97
2022-07-31T04:54:48.565Z,52993.94
2022-07-31T04:55:51.441Z,52990.93
2022-07-31T04:56:54.212Z,52991.94
2022-07-31T04:57:57.079Z,52981.92
2022-07-31T04:58:59.746Z,52986.93
2022-07-31T05:00:02.411Z,52967.89
2022-07-31T05:01:05.403Z,53002.96
2022-07-31T05:02:08.547Z,52993.94
2022-07-31T05:03:12.166Z,53008.97
2022-07-31T05:04:15.042Z,52988.93
2022-07-31T05:05:17.818Z,53005.96
2022-07-31T05:06:20.695Z,52963.88
2022-07-31T05:07:23.563Z,52975.91
2022-07-31T05:08:28.197Z,52984.92
2022-07-31T05:09:30.953Z,52969.89
2022-07-31T05:10:34.449Z,52987.93
2022-07-31T05:11:37.211Z,52972.90
2022-07-31T05:12:39.982Z,52954.86
2022-07-31T05:13:42.968Z,52991.94
2022-07-31T05:14:45.846Z,52994.94
2022-07-31T05:15:48.911Z,52982.92
2022-07-31T05:16:51.688Z,52976.91
2022-07-31T05:17:54.562Z,53014.98
2022-07-31T05:18:58.873Z,52979.91
2022-07-31T05:20:01.655Z,52980.91
2022-07-31T05:21:04.323Z,53014.98
2022-07-31T05:22:07.695Z,52989.93
2022-07-31T05:23:10.778Z,52984.92
2022-07-31T05:24:13.652Z,52977.91
2022-07-31T05:25:16.630Z,53014.98
2022-07-31T05:26:19.713Z,53009.97
2022-07-31T05:27:22.690Z,53000.95
2022-07-31T05:28:29.640Z,53032.02
2022-07-31T05:29:30.484Z,52995.95
2022-07-31T05:30:33.567Z,52993.94
2022-07-31T05:31:36.539Z,53013.98
2022-07-31T05:32:39.314Z,52980.91
2022-07-31T05:33:42.194Z,52983.92
2022-07-31T05:34:45.068Z,53004.96
2022-07-31T05:35:47.836Z,52994.94
2022-07-31T05:36:51.736Z,53018.99
2022-07-31T05:37:55.330Z,53009.97
2022-07-31T05:38:58.418Z,53009.97
2022-07-31T05:40:01.378Z,53011.98
2022-07-31T05:41:04.362Z,52996.95
2022-07-31T05:42:07.736Z,52981.92
2022-07-31T05:43:10.851Z,53008.97
2022-07-31T05:44:13.702Z,52987.93
2022-07-31T05:45:16.779Z,53030.02
2022-07-31T05:46:19.663Z,53009.97
2022-07-31T05:47:22.629Z,52997.95
2022-07-31T05:48:25.604Z,53037.03
2022-07-31T05:49:28.642Z,53028.01
2022-07-31T05:50:31.464Z,53042.04
2022-07-31T05:51:34.539Z,53012.98
2022-07-31T05:52:37.616Z,53034.02
2022-07-31T05:53:40.498Z,53016.99
2022-07-31T05:54:44.804Z,53015.98
2022-07-31T05:55:47.569Z,53042.04
2022-07-31T05:56:50.362Z,53007.97
2022-07-31T05:57:53.045Z,53029.01
2022-07-31T05:58:55.807Z,53013.98
2022-07-31T05:59:58.460Z,53017.99
2022-07-31T06:01:02.268Z,53024.00
2022-07-31T06:02:05.299Z,53047.05
2022-07-31T06:03:08.212Z,53036.03
2022-07-31T06:04:10.884Z,53066.09
2022-07-31T06:05:13.555Z,53025.00
2022-07-31T06:06:16.993Z,53031.02
2022-07-31T06:07:20.119Z,53037.03
2022-07-31T06:08:22.984Z,53082.12
2022-07-31T06:09:25.967Z,53038.03
2022-07-31T06:10:28.846Z,53055.07
2022-07-31T06:11:31.709Z,53039.03
2022-07-31T06:12:34.386Z,53073.10
2022-07-31T06:13:37.362Z,53085.13
2022-07-31T06:14:40.233Z,53073.10
2022-07-31T06:15:49.446Z,53023.00
2022-07-31T06:16:47.521Z,53062.08
2022-07-31T06:17:50.304Z,53041.04
2022-07-31T06:18:54.807Z,53072.10
2022-07-31T06:19:57.882Z,53028.01
2022-07-31T06:21:00.761Z,53073.10
2022-07-31T06:22:03.920Z,53044.04
2022-07-31T06:23:14.686Z,53048.05
2022-07-31T06:24:11.848Z,53065.09
2022-07-31T06:25:16.150Z,53064.08
2022-07-31T06:26:19.126Z,53062.08
2022-07-31T06:27:33.621Z,53060.07
2022-07-31T06:28:38.847Z,53046.05
2022-07-31T06:29:40.777Z,53070.10
2022-07-31T06:30:37.287Z,53054.06
2022-07-31T06:31:40.374Z,53075.11
2022-07-31T06:32:43.139Z,53049.05
2022-07-31T06:33:48.004Z,53050.05
2022-07-31T06:34:50.219Z,53098.15
2022-07-31T06:35:53.088Z,53094.14
2022-07-31T06:36:55.864Z,53072.10
2022-07-31T06:37:58.948Z,53090.14
2022-07-31T06:39:02.023Z,53073.10
2022-07-31T06:40:04.691Z,53082.12
2022-07-31T06:41:07.665Z,53087.13
2022-07-31T06:42:10.538Z,53101.16
2022-07-31T06:43:13.313Z,53091.14
2022-07-31T06:44:16.290Z,53085.13
2022-07-31T06:45:35.712Z,53107.17
2022-07-31T06:46:23.578Z,53110.18
2022-07-31T06:47:26.677Z,53102.16
2022-07-31T06:48:29.534Z,53102.16
2022-07-31T06:49:32.338Z,53056.07
2022-07-31T06:50:35.076Z,53098.15
2022-07-31T06:51:37.842Z,53108.17
2022-07-31T06:52:40.617Z,53112.18
2022-07-31T06:53:43.491Z,53112.18
2022-07-31T06:54:46.371Z,53096.15
2022-07-31T06:55:49.241Z,53126.21
2022-07-31T06:56:52.013Z,53114.19
2022-07-31T06:57:54.793Z,53089.14
2022-07-31T06:58:57.485Z,53094.14
2022-07-31T07:00:03.135Z,53152.27
2022-07-31T07:01:04.519Z,53103.16
2022-07-31T07:03:21.652Z,53131.22
2022-07-31T07:04:24.743Z,53119.20
2022-07-31T07:05:29.456Z,53142.25
2022-07-31T07:06:32.217Z,53118.20
2022-07-31T07:07:35.610Z,53154.27
2022-07-31T07:08:38.590Z,53131.22
2022-07-31T07:09:41.767Z,53126.21
2022-07-31T07:10:44.638Z,53156.27
2022-07-31T07:11:50.683Z,53136.23
2022-07-31T07:12:51.833Z,53157.28
2022-07-31T07:13:56.128Z,53134.23
2022-07-31T07:14:59.013Z,53125.21
2022-07-31T07:16:01.678Z,53143.25
2022-07-31T07:17:04.552Z,53158.28
2022-07-31T07:18:07.575Z,53158.28
2022-07-31T07:19:10.709Z,53188.34
2022-07-31T07:20:13.586Z,53194.35
2022-07-31T07:21:16.458Z,53177.32
2022-07-31T07:22:19.125Z,53185.34
2022-07-31T07:23:23.435Z,53210.39
2022-07-31T07:24:26.307Z,53214.39
2022-07-31T07:25:28.976Z,53230.43
2022-07-31T07:26:31.956Z,53234.44
2022-07-31T07:27:34.744Z,53272.52
2022-07-31T07:28:37.404Z,53261.50
2022-07-31T07:29:40.179Z,53303.58
2022-07-31T07:30:44.680Z,53304.58
2022-07-31T07:31:47.565Z,53356.70
2022-07-31T07:32:50.433Z,53395.78
2022-07-31T07:33:53.203Z,53374.73
2022-07-31T07:34:59.461Z,53413.82
2022-07-31T07:36:00.498Z,53433.86
2022-07-31T07:37:03.470Z,53390.77
2022-07-31T07:38:06.243Z,53392.77
2022-07-31T07:39:10.657Z,53430.85
2022-07-31T07:40:13.424Z,53452.90
2022-07-31T07:41:18.504Z,53453.90
2022-07-31T07:42:20.604Z,53445.89
2022-07-31T07:43:23.382Z,53445.89
2022-07-31T07:44:26.048Z,53416.82
2022-07-31T07:45:28.931Z,53460.92
2022-07-31T07:46:31.597Z,53426.84
2022-07-31T07:47:54.118Z,53420.83
2022-07-31T07:48:38.874Z,53382.75
2022-07-31T07:49:41.759Z,53395.78
2022-07-31T07:50:44.420Z,53390.77
2022-07-31T07:51:59.479Z,53374.73
2022-07-31T07:52:51.506Z,53364.71
2022-07-31T07:53:54.374Z,53352.69
2022-07-31T07:54:57.354Z,53410.81
2022-07-31T07:56:00.340Z,53365.71
2022-07-31T07:57:03.206Z,53365.71
2022-07-31T07:58:10.094Z,53372.73
2022-07-31T07:59:14.973Z,53381.75
2022-07-31T08:00:15.209Z,53446.89
2022-07-31T08:01:18.359Z,53436.87
2022-07-31T08:02:21.670Z,53438.87
2022-07-31T08:03:49.953Z,53499.00
2022-07-31T08:04:29.164Z,53539.09
2022-07-31T08:05:32.140Z,53577.17
2022-07-31T08:06:34.913Z,53655.34
2022-07-31T08:07:42.585Z,53692.42
2022-07-31T08:08:42.198Z,53711.46
2022-07-31T08:09:44.968Z,53741.53
2022-07-31T08:10:47.645Z,53740.53
2022-07-31T08:11:50.310Z,53814.70
2022-07-31T08:12:53.288Z,53759.57
2022-07-31T08:13:56.157Z,53876.84
2022-07-31T08:14:59.140Z,53903.90
2022-07-31T08:16:04.777Z,53890.87
2022-07-31T08:17:07.959Z,53865.81
2022-07-31T08:18:12.472Z,53873.83
2022-07-31T08:19:15.454Z,53925.95
2022-07-31T08:20:18.326Z,53948.00
2022-07-31T08:21:21.103Z,53986.08
2022-07-31T08:22:23.772Z,54062.26
2022-07-31T08:23:26.441Z,54084.31
2022-07-31T08:24:29.207Z,54155.47
2022-07-31T08:25:32.289Z,54232.65
2022-07-31T08:26:35.067Z,54487.26
2022-07-31T08:27:40.307Z,54680.73
2022-07-31T08:28:50.084Z,54951.41
2022-07-31T08:29:46.661Z,55087.75
2022-07-31T08:30:50.960Z,55161.95
2022-07-31T08:31:53.740Z,55228.11
2022-07-31T08:32:56.710Z,55297.30
2022-07-31T08:33:59.691Z,55288.27
2022-07-31T08:35:02.464Z,55365.47
2022-07-31T08:36:05.540Z,55427.64
2022-07-31T08:37:51.743Z,55537.93
2022-07-31T08:38:12.622Z,55589.07
2022-07-31T08:39:21.205Z,55636.20
2022-07-31T08:40:20.112Z,55680.31
2022-07-31T08:41:23.298Z,55700.37
2022-07-31T08:42:26.271Z,56036.30
2022-07-31T08:44:02.868Z,56031.28
2022-07-31T08:44:33.552Z,56107.50
2022-07-31T08:45:40.275Z,56108.50
2022-07-31T08:46:40.847Z,56135.57
2022-07-31T08:47:43.612Z,56175.69
2022-07-31T08:48:46.444Z,56170.68
2022-07-31T08:49:49.155Z,56175.69
2022-07-31T08:50:53.866Z,56173.68
2022-07-31T08:51:56.339Z,56185.71
2022-07-31T08:52:59.213Z,56165.66
2022-07-31T08:54:01.990Z,56171.68
2022-07-31T08:55:07.947Z,56177.69
2022-07-31T08:56:10.613Z,56164.66
2022-07-31T08:57:13.578Z,56128.55
2022-07-31T08:58:16.457Z,56089.45
2022-07-31T08:59:19.119Z,56108.50
2022-07-31T09:00:22.054Z,56069.39
2022-07-31T09:01:24.880Z,56067.38
2022-07-31T09:02:27.646Z,56077.41
2022-07-31T09:03:30.415Z,56065.38
2022-07-31T09:04:33.194Z,56046.32
2022-07-31T09:05:41.769Z,56063.37
2022-07-31T09:06:40.166Z,56012.23
2022-07-31T09:07:42.938Z,56028.27
2022-07-31T09:08:45.712Z,56060.36
2022-07-31T09:09:52.194Z,56061.37
2022-07-31T09:10:52.790Z,56075.41
2022-07-31T09:11:55.562Z,56099.47
2022-07-31T09:12:58.236Z,56115.52
2022-07-31T09:14:02.754Z,56152.62
2022-07-31T09:15:05.209Z,56159.64
2022-07-31T09:16:08.087Z,56161.65
2022-07-31T09:17:10.754Z,56199.76
2022-07-31T09:18:13.633Z,56209.79
2022-07-31T09:19:51.243Z,56332.14
2022-07-31T09:20:20.708Z,56330.13
2022-07-31T09:21:23.383Z,56404.34
2022-07-31T09:22:26.153Z,56401.33
2022-07-31T09:23:28.929Z,56384.29
2022-07-31T09:24:31.590Z,56408.36
2022-07-31T09:25:35.899Z,56382.28
2022-07-31T09:26:38.777Z,56416.38
2022-07-31T09:27:41.650Z,56426.41
2022-07-31T09:28:44.424Z,56492.60
2022-07-31T09:29:47.295Z,56504.63
2022-07-31T09:30:56.230Z,56550.77
2022-07-31T09:31:54.496Z,56542.75
2022-07-31T09:32:57.415Z,56570.83
2022-07-31T09:34:00.329Z,56578.85
2022-07-31T09:35:03.311Z,56563.81
2022-07-31T09:36:06.608Z,56569.82
2022-07-31T09:37:09.506Z,56600.92
2022-07-31T09:38:12.549Z,56566.82
2022-07-31T09:39:26.777Z,56497.61
2022-07-31T09:40:21.050Z,56510.65
2022-07-31T09:41:56.332Z,56498.62
2022-07-31T09:42:28.563Z,56524.70
2022-07-31T09:43:31.917Z,56483.57
2022-07-31T09:44:35.223Z,56495.61
2022-07-31T09:45:47.936Z,56480.57
2022-07-31T09:46:42.608Z,56430.42
2022-07-31T09:47:45.692Z,56432.42
2022-07-31T09:48:48.484Z,56437.44
2022-07-31T09:49:51.131Z,56412.37
2022-07-31T09:50:53.900Z,56429.41
2022-07-31T09:51:56.882Z,56396.32
2022-07-31T09:52:59.756Z,56412.37
2022-07-31T09:54:02.633Z,56349.18
2022-07-31T09:55:15.607Z,56391.30
2022-07-31T09:56:10.116Z,56446.46
2022-07-31T09:57:13.199Z,56464.52
2022-07-31T09:58:16.176Z,56473.54
2022-07-31T09:59:19.058Z,56475.55
2022-07-31T10:00:22.040Z,56476.55
2022-07-31T10:01:25.172Z,56487.59
2022-07-31T10:02:28.301Z,56488.59
2022-07-31T10:03:32.316Z,56550.77
2022-07-31T10:04:34.963Z,56519.68
2022-07-31T10:05:37.933Z,56549.77
2022-07-31T10:06:40.713Z,56553.78
2022-07-31T10:07:43.379Z,56532.71
2022-07-31T10:08:46.147Z,56476.55
2022-07-31T10:09:49.023Z,56460.50
2022-07-31T10:10:51.802Z,56454.49
2022-07-31T10:11:54.477Z,56429.41
2022-07-31T10:12:57.444Z,56388.30
2022-07-31T10:14:00.323Z,56418.38
2022-07-31T10:15:03.294Z,56334.14
2022-07-31T10:16:06.274Z,56391.30
2022-07-31T10:17:09.152Z,56382.28
2022-07-31T10:18:12.017Z,56312.08
2022-07-31T10:19:14.791Z,56294.02
2022-07-31T10:20:17.564Z,56278.98
2022-07-31T10:21:20.334Z,56241.87
2022-07-31T10:22:23.104Z,56201.76
2022-07-31T10:23:25.878Z,56228.84
2022-07-31T10:24:28.750Z,56187.72
2022-07-31T10:25:31.424Z,56193.74
2022-07-31T10:26:59.065Z,56211.79
2022-07-31T10:27:39.584Z,56193.74
2022-07-31T10:28:42.615Z,56141.59
2022-07-31T10:29:45.286Z,56188.73
2022-07-31T10:30:48.054Z,56119.53
2022-07-31T10:31:50.839Z,56150.62
2022-07-31T10:32:53.513Z,56129.56
2022-07-31T10:33:56.266Z,56101.48
2022-07-31T10:34:59.142Z,56106.49
2022-07-31T10:36:02.123Z,56101.48
2022-07-31T10:37:05.038Z,56093.46
2022-07-31T10:38:09.095Z,56071.39
2022-07-31T10:39:11.865Z,56065.38
2022-07-31T10:40:14.639Z,56059.36
2022-07-31T10:41:17.542Z,56078.41
2022-07-31T10:42:20.186Z,56044.32
2022-07-31T10:43:22.960Z,55995.18
2022-07-31T10:44:25.731Z,56045.32
2022-07-31T10:45:28.402Z,56092.45
2022-07-31T10:46:31.087Z,56002.20
2022-07-31T10:47:34.072Z,56051.34
2022-07-31T10:48:36.824Z,56061.37
2022-07-31T10:49:40.073Z,56021.25
2022-07-31T10:50:42.876Z,56038.30
2022-07-31T10:51:45.774Z,56065.38
2022-07-31T10:52:48.423Z,56047.33
2022-07-31T10:53:55.224Z,56001.20
2022-07-31T10:54:55.398Z,55944.04
2022-07-31T10:55:58.166Z,55953.06
2022-07-31T10:57:01.480Z,55952.06
2022-07-31T10:58:04.225Z,55991.17
2022-07-31T10:59:07.201Z,56004.21
2022-07-31T11:00:11.714Z,55953.06
2022-07-31T11:01:17.620Z,55917.96
2022-07-31T11:02:19.098Z,55899.92
2022-07-31T11:03:22.107Z,55886.88
2022-07-31T11:04:25.059Z,55908.94
2022-07-31T11:05:28.302Z,55906.93
2022-07-31T11:06:31.425Z,55858.80
2022-07-31T11:07:34.506Z,55908.94
2022-07-31T11:08:37.168Z,55902.93
2022-07-31T11:09:50.528Z,55842.76
2022-07-31T11:10:44.354Z,55852.79
2022-07-31T11:11:47.136Z,55847.77
2022-07-31T11:12:49.799Z,55794.62
2022-07-31T11:13:52.567Z,55805.66
2022-07-31T11:14:55.284Z,55804.65
2022-07-31T11:15:58.252Z,55832.73
2022-07-31T11:17:03.147Z,55820.70
2022-07-31T11:18:22.776Z,55741.48
2022-07-31T11:19:10.527Z,55814.68
2022-07-31T11:20:13.219Z,55777.58
2022-07-31T11:21:37.715Z,55749.50
2022-07-31T11:22:31.291Z,55745.49
2022-07-31T11:23:24.382Z,55700.37
2022-07-31T11:24:27.252Z,55682.32
2022-07-31T11:25:30.024Z,55719.42
2022-07-31T11:26:41.262Z,55690.34
2022-07-31T11:27:37.309Z,55710.39
2022-07-31T11:28:40.089Z,55716.41
2022-07-31T11:30:02.079Z,55689.34
2022-07-31T11:30:47.260Z,55694.35
2022-07-31T11:31:50.039Z,55657.25
2022-07-31T11:32:52.808Z,55700.37
2022-07-31T11:33:55.485Z,55650.23
2022-07-31T11:34:59.990Z,55672.29
2022-07-31T11:36:02.969Z,55670.29
2022-07-31T11:37:06.198Z,55602.10
2022-07-31T11:38:09.638Z,55597.09
2022-07-31T11:39:12.820Z,55581.05
2022-07-31T11:40:17.693Z,55590.07
2022-07-31T11:41:22.289Z,55627.17
2022-07-31T11:42:27.670Z,55610.12
2022-07-31T11:43:29.256Z,55572.02
2022-07-31T11:44:32.016Z,55596.09
2022-07-31T11:45:34.675Z,55564.00
2022-07-31T11:46:37.347Z,55536.93
2022-07-31T11:48:11.531Z,55563.00
2022-07-31T11:48:45.731Z,55501.84
2022-07-31T11:49:49.477Z,55490.80
2022-07-31T11:50:52.530Z,55435.66
2022-07-31T11:51:55.299Z,55437.66
2022-07-31T11:52:58.074Z,55410.59
2022-07-31T11:54:00.853Z,55409.59
2022-07-31T11:55:08.571Z,55373.50
2022-07-31T11:56:07.831Z,55301.30
2022-07-31T11:57:10.502Z,55335.39
2022-07-31T11:58:13.166Z,55330.38
2022-07-31T11:59:45.631Z,55318.35
2022-07-31T12:00:26.821Z,55305.32
2022-07-31T12:01:24.668Z,55299.30
2022-07-31T12:02:27.610Z,55304.31
2022-07-31T12:03:30.307Z,55311.33
2022-07-31T12:04:33.079Z,55286.27
2022-07-31T12:05:38.770Z,55255.18
2022-07-31T12:06:40.257Z,55251.17
2022-07-31T12:07:43.762Z,55217.09
2022-07-31T12:08:46.410Z,55248.16
2022-07-31T12:10:00.770Z,55172.97
2022-07-31T12:10:53.501Z,55198.04
2022-07-31T12:11:56.176Z,55192.02
2022-07-31T12:12:59.045Z,55152.92
2022-07-31T12:14:02.013Z,55207.06
2022-07-31T12:15:04.990Z,55185.00
2022-07-31T12:16:07.977Z,55197.04
2022-07-31T12:17:10.957Z,55188.01
2022-07-31T12:18:15.458Z,55170.96
2022-07-31T12:19:18.551Z,55114.82
2022-07-31T12:20:34.479Z,55129.86
2022-07-31T12:21:25.938Z,55149.91
2022-07-31T12:22:28.904Z,55133.87